Time;durP1;ratioP1;P1;durP2;ratioP2;P2;SDS_P1;SDS_P2;PMS_P1;PMS_P2;Temp;Humidity;BMP_temperature;BMP_pressure;BME280_temperature;BME280_humidity;BME280_pressure;Samples;Min_cycle;Max_cycle;Signal;HPM_P1;HPM_P2
2022/03/21 00:02:19;;;;;;;;;;;3.30;74.50;;;;;;4991204;28;19978;-80
2022/03/21 00:04:45;;;;;;;;;;;3.20;74.70;;;;;;4991478;28;20269;-81
2022/03/21 00:07:10;;;;;;;;;;;3.30;74.10;;;;;;4987171;28;19922;-80
2022/03/21 00:09:36;;;;;;;;;;;3.30;75.30;;;;;;4981768;28;19969;-80
2022/03/21 00:12:03;;;;;;;;;;;3.20;77.40;;;;;;4988830;28;19924;-80
2022/03/21 00:14:29;;;;;;;;;;;3.20;77.40;;;;;;4957655;28;20340;-81
2022/03/21 00:16:55;;;;;;;;;;;3.10;76.40;;;;;;4979909;28;20016;-81
2022/03/21 00:19:22;;;;;;;;;;;3.00;76.90;;;;;;4990607;28;19972;-81
2022/03/21 00:21:47;;;;;;;;;;;3.00;79.00;;;;;;4990579;28;19918;-80
2022/03/21 00:24:13;;;;;;;;;;;2.90;78.30;;;;;;4974375;28;19929;-79
2022/03/21 00:26:39;;;;;;;;;;;2.80;78.40;;;;;;4970991;28;20090;-80
2022/03/21 00:29:15;;;;;;;;;;;2.60;79.10;;;;;;4956452;28;20367;-80
2022/03/21 00:31:41;;;;;;;;;;;2.50;78.80;;;;;;4969087;28;19957;-79
2022/03/21 00:34:07;;;;;;;;;;;2.40;79.00;;;;;;4985304;28;19980;-80
2022/03/21 00:36:33;;;;;;;;;;;2.30;80.10;;;;;;4986034;28;20291;-79
2022/03/21 00:38:59;;;;;;;;;;;2.30;79.30;;;;;;4987195;28;19918;-80
2022/03/21 00:41:25;;;;;;;;;;;2.30;79.50;;;;;;4971539;28;20270;-80
2022/03/21 00:43:52;;;;;;;;;;;2.30;79.00;;;;;;4989308;28;19926;-80
2022/03/21 00:46:18;;;;;;;;;;;2.20;79.50;;;;;;4974004;28;19968;-80
2022/03/21 00:48:44;;;;;;;;;;;2.20;79.40;;;;;;4971035;28;20088;-80
2022/03/21 00:51:10;;;;;;;;;;;2.20;80.10;;;;;;4956286;28;20389;-79
2022/03/21 00:53:35;;;;;;;;;;;2.10;80.60;;;;;;4989789;28;20024;-80
2022/03/21 00:56:02;;;;;;;;;;;2.00;81.60;;;;;;4960507;28;20397;-80
2022/03/21 00:58:27;;;;;;;;;;;1.80;82.10;;;;;;4991354;28;19922;-80
2022/03/21 01:00:53;;;;;;;;;;;1.70;81.70;;;;;;4974203;28;19940;-80
2022/03/21 01:03:18;;;;;;;;;;;1.60;82.10;;;;;;4990114;28;19922;-80
2022/03/21 01:05:44;;;;;;;;;;;1.50;81.70;;;;;;4973666;28;20013;-80
2022/03/21 01:08:10;;;;;;;;;;;1.50;81.70;;;;;;4981697;28;19921;-80
2022/03/21 01:10:36;;;;;;;;;;;1.50;82.20;;;;;;5002901;28;20009;-80
2022/03/21 01:13:03;;;;;;;;;;;1.50;82.60;;;;;;4967079;28;20375;-79
2022/03/21 01:15:28;;;;;;;;;;;1.60;82.90;;;;;;4965453;28;19980;-80
2022/03/21 01:17:55;;;;;;;;;;;1.60;83.00;;;;;;4963830;28;20344;-80
2022/03/21 01:20:21;;;;;;;;;;;1.50;82.80;;;;;;4955113;28;20388;-80
2022/03/21 01:22:47;;;;;;;;;;;1.50;84.20;;;;;;4987876;28;19918;-80
2022/03/21 01:25:13;;;;;;;;;;;1.50;84.00;;;;;;4977230;28;19914;-80
2022/03/21 01:27:39;;;;;;;;;;;1.50;84.70;;;;;;4970353;28;19929;-79
2022/03/21 01:30:06;;;;;;;;;;;1.40;84.80;;;;;;4960907;28;19925;-80
2022/03/21 01:32:33;;;;;;;;;;;1.30;85.50;;;;;;4970572;28;19922;-80
2022/03/21 01:34:58;;;;;;;;;;;1.30;84.90;;;;;;4987358;28;19918;-80
2022/03/21 01:37:24;;;;;;;;;;;1.30;85.00;;;;;;4971698;28;19919;-80
2022/03/21 01:39:49;;;;;;;;;;;1.20;84.00;;;;;;4982078;28;19925;-80
2022/03/21 01:42:16;;;;;;;;;;;1.20;83.30;;;;;;4980278;28;19925;-80
2022/03/21 01:44:42;;;;;;;;;;;1.20;83.30;;;;;;4980216;28;19972;-80
2022/03/21 01:47:07;;;;;;;;;;;1.20;82.90;;;;;;4989390;28;20304;-80
2022/03/21 01:49:33;;;;;;;;;;;1.30;83.70;;;;;;4989291;28;19925;-80
2022/03/21 01:51:59;;;;;;;;;;;1.30;83.00;;;;;;4990032;28;19976;-80
2022/03/21 01:57:09;;;;;;;;;;;1.20;83.40;;;;;;4974026;28;20074;-80
2022/03/21 01:59:36;;;;;;;;;;;1.10;83.80;;;;;;4967627;28;20005;-79
2022/03/21 02:02:02;;;;;;;;;;;1.10;83.50;;;;;;4953728;28;19981;-79
2022/03/21 02:04:28;;;;;;;;;;;1.00;84.00;;;;;;4973326;28;20012;-80
2022/03/21 02:06:54;;;;;;;;;;;1.00;83.30;;;;;;4990888;28;19960;-79
2022/03/21 02:09:20;;;;;;;;;;;1.00;83.70;;;;;;4976737;28;19992;-80
2022/03/21 02:11:45;;;;;;;;;;;1.00;82.90;;;;;;4994820;28;19917;-79
2022/03/21 02:14:11;;;;;;;;;;;1.00;83.30;;;;;;4977172;28;19928;-80
2022/03/21 02:16:37;;;;;;;;;;;1.10;82.60;;;;;;4992829;28;19925;-80
2022/03/21 02:19:06;;;;;;;;;;;1.10;81.70;;;;;;4957190;28;19918;-80
2022/03/21 02:21:47;;;;;;;;;;;1.20;81.40;;;;;;4989609;28;20281;-80
2022/03/21 02:24:22;;;;;;;;;;;1.30;81.70;;;;;;4991690;28;19918;-80
2022/03/21 02:26:48;;;;;;;;;;;1.30;81.00;;;;;;4973265;28;20376;-80
2022/03/21 02:29:16;;;;;;;;;;;1.30;81.00;;;;;;4981293;28;19915;-79
2022/03/21 02:31:41;;;;;;;;;;;1.30;81.50;;;;;;4973858;28;19918;-80
2022/03/21 02:34:08;;;;;;;;;;;1.30;81.00;;;;;;4970503;28;20273;-80
2022/03/21 02:36:34;;;;;;;;;;;1.30;80.90;;;;;;4990066;28;19914;-80
2022/03/21 02:39:00;;;;;;;;;;;1.30;80.60;;;;;;4991871;28;20428;-80
2022/03/21 02:41:26;;;;;;;;;;;1.40;80.00;;;;;;4995410;28;20302;-80
2022/03/21 02:43:53;;;;;;;;;;;1.40;79.40;;;;;;4971272;28;19922;-80
2022/03/21 02:46:19;;;;;;;;;;;1.50;79.60;;;;;;4976237;28;19984;-80
2022/03/21 02:48:46;;;;;;;;;;;1.50;79.70;;;;;;4992590;28;20376;-80
2022/03/21 02:51:12;;;;;;;;;;;1.50;81.00;;;;;;4973324;28;19914;-80
2022/03/21 02:53:38;;;;;;;;;;;1.40;81.30;;;;;;4991666;28;19920;-80
2022/03/21 02:56:04;;;;;;;;;;;1.40;82.90;;;;;;4992334;28;19920;-80
2022/03/21 02:58:30;;;;;;;;;;;1.40;83.50;;;;;;4993522;28;19913;-80
2022/03/21 03:01:05;;;;;;;;;;;1.30;83.50;;;;;;4992432;28;19918;-80
2022/03/21 03:03:30;;;;;;;;;;;1.10;83.40;;;;;;4977535;28;19967;-80
2022/03/21 03:05:56;;;;;;;;;;;1.00;84.00;;;;;;4992050;28;19921;-80
2022/03/21 03:08:21;;;;;;;;;;;0.90;84.70;;;;;;4978910;28;19929;-80
2022/03/21 03:10:47;;;;;;;;;;;0.80;84.80;;;;;;4972846;28;20289;-80
2022/03/21 03:13:12;;;;;;;;;;;0.80;86.00;;;;;;4982344;28;19925;-80
2022/03/21 03:15:38;;;;;;;;;;;0.70;85.80;;;;;;4955629;28;19922;-80
2022/03/21 03:18:04;;;;;;;;;;;0.70;87.00;;;;;;4982766;28;19973;-80
2022/03/21 03:20:29;;;;;;;;;;;0.60;86.70;;;;;;4974398;28;20406;-80
2022/03/21 03:22:56;;;;;;;;;;;0.50;86.90;;;;;;4975032;28;19931;-80
2022/03/21 03:25:23;;;;;;;;;;;0.30;87.60;;;;;;4992935;28;20280;-80
2022/03/21 03:27:48;;;;;;;;;;;0.20;88.20;;;;;;4975259;28;20352;-81
2022/03/21 03:30:14;;;;;;;;;;;0.20;88.20;;;;;;4975734;28;19961;-79
2022/03/21 03:32:40;;;;;;;;;;;0.20;88.80;;;;;;4992027;28;19918;-80
2022/03/21 03:35:05;;;;;;;;;;;0.20;88.30;;;;;;4989969;28;19925;-80
2022/03/21 03:37:31;;;;;;;;;;;0.30;87.50;;;;;;4991452;28;19926;-80
2022/03/21 03:39:57;;;;;;;;;;;0.40;88.40;;;;;;4993131;28;20431;-80
2022/03/21 03:42:22;;;;;;;;;;;0.40;88.10;;;;;;4971978;28;19969;-80
2022/03/21 03:44:48;;;;;;;;;;;0.40;88.00;;;;;;4972224;28;19925;-80
2022/03/21 03:47:14;;;;;;;;;;;0.40;89.80;;;;;;4989140;28;19924;-80
2022/03/21 03:49:40;;;;;;;;;;;0.30;88.70;;;;;;4988226;28;19910;-80
2022/03/21 03:52:06;;;;;;;;;;;0.20;88.10;;;;;;4972711;28;20381;-80
2022/03/21 03:54:31;;;;;;;;;;;0.20;89.20;;;;;;4990365;28;19922;-80
2022/03/21 03:56:57;;;;;;;;;;;0.30;88.30;;;;;;4992268;28;19918;-79
2022/03/21 03:59:22;;;;;;;;;;;0.30;88.30;;;;;;4988000;28;19992;-80
2022/03/21 04:01:48;;;;;;;;;;;0.30;87.20;;;;;;4993567;28;19914;-80
2022/03/21 04:04:13;;;;;;;;;;;0.30;86.60;;;;;;4971631;28;19922;-80
2022/03/21 04:06:39;;;;;;;;;;;0.30;87.10;;;;;;4991386;28;20292;-79
2022/03/21 04:09:05;;;;;;;;;;;0.20;88.00;;;;;;4991891;28;19984;-79
2022/03/21 04:11:30;;;;;;;;;;;0.20;88.90;;;;;;4992104;28;20395;-80
2022/03/21 04:13:56;;;;;;;;;;;0.20;89.30;;;;;;4966895;28;19918;-79
2022/03/21 04:16:21;;;;;;;;;;;0.20;89.50;;;;;;4991449;28;19928;-79
2022/03/21 04:18:48;;;;;;;;;;;0.20;89.40;;;;;;4973281;28;20384;-80
2022/03/21 04:21:13;;;;;;;;;;;0.10;90.70;;;;;;4990218;28;19913;-79
2022/03/21 04:23:39;;;;;;;;;;;0.10;91.70;;;;;;4988062;28;19975;-80
2022/03/21 04:26:05;;;;;;;;;;;0.00;91.90;;;;;;4989582;28;19960;-79
2022/03/21 04:28:30;;;;;;;;;;;0.10;90.10;;;;;;4987033;28;20061;-79
2022/03/21 04:30:56;;;;;;;;;;;0.10;90.10;;;;;;4971720;28;20017;-80
2022/03/21 04:33:21;;;;;;;;;;;0.00;90.70;;;;;;4983343;28;19921;-80
2022/03/21 04:35:47;;;;;;;;;;;0.00;92.00;;;;;;4974523;28;19913;-80
2022/03/21 04:38:13;;;;;;;;;;;-0.10;92.10;;;;;;4992042;28;19914;-80
2022/03/21 04:40:49;;;;;;;;;;;-0.10;91.50;;;;;;4992186;28;20373;-81
2022/03/21 04:43:16;;;;;;;;;;;-0.20;91.20;;;;;;4986365;28;19924;-80
2022/03/21 04:45:42;;;;;;;;;;;-0.20;91.60;;;;;;4973993;28;19968;-81
2022/03/21 04:48:09;;;;;;;;;;;-0.20;91.90;;;;;;4974886;28;19926;-81
2022/03/21 04:50:34;;;;;;;;;;;-0.20;92.00;;;;;;4971270;28;20005;-80
2022/03/21 04:53:00;;;;;;;;;;;-0.20;91.20;;;;;;5001584;28;19956;-80
2022/03/21 04:55:26;;;;;;;;;;;-0.30;91.00;;;;;;5004039;28;19922;-80
2022/03/21 04:57:52;;;;;;;;;;;-0.30;90.90;;;;;;4990140;28;19910;-80
2022/03/21 05:00:17;;;;;;;;;;;-0.30;91.20;;;;;;4987255;28;19918;-80
2022/03/21 05:02:43;;;;;;;;;;;-0.30;91.30;;;;;;4971103;28;19931;-80
2022/03/21 05:05:09;;;;;;;;;;;-0.30;91.40;;;;;;4990528;28;19921;-80
2022/03/21 05:07:38;;;;;;;;;;;-0.30;91.60;;;;;;4989109;28;19918;-80
2022/03/21 05:10:04;;;;;;;;;;;-0.30;91.60;;;;;;4955326;28;19918;-81
2022/03/21 05:12:29;;;;;;;;;;;-0.40;91.70;;;;;;4963446;28;19941;-80
2022/03/21 05:14:56;;;;;;;;;;;-0.30;92.50;;;;;;5006790;28;19929;-80
2022/03/21 05:17:22;;;;;;;;;;;-0.30;91.50;;;;;;4990068;28;19922;-80
2022/03/21 05:19:48;;;;;;;;;;;-0.30;91.80;;;;;;4973353;28;19917;-81
2022/03/21 05:22:13;;;;;;;;;;;-0.30;92.40;;;;;;4991412;28;19914;-80
2022/03/21 05:35:52;;;;;;;;;;;-0.30;93.80;;;;;;4989011;28;19917;-79
2022/03/21 05:35:55;;;;;;;;;;;-0.30;94.60;;;;;;4990653;28;20013;-80
2022/03/21 05:38:22;;;;;;;;;;;-0.30;93.30;;;;;;4970594;28;19937;-80
2022/03/21 05:40:48;;;;;;;;;;;-0.30;92.90;;;;;;4997901;28;19993;-80
2022/03/21 05:43:14;;;;;;;;;;;-0.30;93.00;;;;;;4994974;28;19921;-80
2022/03/21 05:45:39;;;;;;;;;;;-0.40;93.50;;;;;;4994064;28;20562;-80
2022/03/21 05:50:49;;;;;;;;;;;-0.30;93.80;;;;;;4995468;28;19969;-80
2022/03/21 05:53:14;;;;;;;;;;;-0.30;94.20;;;;;;4984202;28;19969;-80
2022/03/21 05:55:40;;;;;;;;;;;-0.20;94.10;;;;;;4993382;28;19909;-80
2022/03/21 05:58:06;;;;;;;;;;;-0.20;93.80;;;;;;4982218;28;19925;-79
2022/03/21 06:00:34;;;;;;;;;;;-0.20;93.90;;;;;;4995111;28;19922;-80
2022/03/21 06:03:00;;;;;;;;;;;-0.10;94.10;;;;;;4977282;28;19976;-80
2022/03/21 06:05:26;;;;;;;;;;;0.00;93.80;;;;;;4994141;28;19992;-80
2022/03/21 06:07:54;;;;;;;;;;;0.20;93.70;;;;;;4976673;28;19922;-80
2022/03/21 06:10:20;;;;;;;;;;;0.30;93.70;;;;;;4989951;28;19925;-80
2022/03/21 06:12:45;;;;;;;;;;;0.50;92.80;;;;;;4993421;28;20261;-80
2022/03/21 06:15:11;;;;;;;;;;;0.70;92.30;;;;;;4992515;28;19945;-80
2022/03/21 06:17:41;;;;;;;;;;;0.90;91.80;;;;;;4994165;28;19922;-79
2022/03/21 06:20:08;;;;;;;;;;;1.00;91.30;;;;;;4994702;28;19921;-79
2022/03/21 06:22:33;;;;;;;;;;;1.20;91.80;;;;;;4993079;28;20016;-80
2022/03/21 06:24:59;;;;;;;;;;;1.40;90.70;;;;;;4990165;28;20016;-80
2022/03/21 06:27:24;;;;;;;;;;;1.60;89.00;;;;;;4994019;28;20017;-80
2022/03/21 06:29:50;;;;;;;;;;;1.90;87.80;;;;;;4993212;28;19918;-80
2022/03/21 06:32:16;;;;;;;;;;;2.10;86.90;;;;;;4989346;28;19924;-79
2022/03/21 06:34:41;;;;;;;;;;;2.30;87.40;;;;;;4994423;28;19922;-80
2022/03/21 06:37:08;;;;;;;;;;;2.40;86.00;;;;;;4993003;28;19922;-80
2022/03/21 06:39:34;;;;;;;;;;;2.60;87.20;;;;;;4971651;28;19922;-81
2022/03/21 06:42:00;;;;;;;;;;;2.90;84.50;;;;;;4987468;28;20005;-80
2022/03/21 06:44:25;;;;;;;;;;;3.10;84.60;;;;;;4993119;28;19979;-80
2022/03/21 06:46:51;;;;;;;;;;;3.30;82.70;;;;;;4992737;28;20404;-81
2022/03/21 06:49:16;;;;;;;;;;;3.40;80.00;;;;;;4992253;28;19918;-80
2022/03/21 06:51:42;;;;;;;;;;;3.40;79.60;;;;;;4992176;28;19957;-80
2022/03/21 06:54:08;;;;;;;;;;;3.50;77.50;;;;;;4989895;28;19914;-80
2022/03/21 06:56:34;;;;;;;;;;;3.50;75.40;;;;;;4990887;28;19957;-80
2022/03/21 06:58:59;;;;;;;;;;;3.60;76.50;;;;;;4992109;28;19965;-79
2022/03/21 07:01:25;;;;;;;;;;;3.60;76.80;;;;;;4976271;28;19924;-80
2022/03/21 07:03:51;;;;;;;;;;;3.80;77.70;;;;;;4991410;28;20331;-80
2022/03/21 07:06:17;;;;;;;;;;;4.00;76.30;;;;;;4983745;28;19918;-80
2022/03/21 07:08:43;;;;;;;;;;;4.00;73.50;;;;;;4993076;28;19926;-80
2022/03/21 07:11:12;;;;;;;;;;;4.20;75.50;;;;;;4992072;28;19918;-80
2022/03/21 07:13:38;;;;;;;;;;;4.40;74.10;;;;;;4975772;28;19961;-80
2022/03/21 07:16:04;;;;;;;;;;;4.50;72.90;;;;;;4990637;28;19918;-80
2022/03/21 07:18:30;;;;;;;;;;;4.60;71.40;;;;;;4988250;28;20020;-80
2022/03/21 07:20:55;;;;;;;;;;;4.70;74.10;;;;;;4991229;28;19918;-80
2022/03/21 07:23:21;;;;;;;;;;;4.80;69.80;;;;;;4993285;28;20009;-80
2022/03/21 07:25:47;;;;;;;;;;;4.80;70.50;;;;;;4992148;28;19914;-80
2022/03/21 07:28:12;;;;;;;;;;;4.90;72.20;;;;;;4991068;28;19918;-81
2022/03/21 07:30:38;;;;;;;;;;;5.00;70.50;;;;;;4987169;28;19914;-80
2022/03/21 07:33:04;;;;;;;;;;;5.10;69.20;;;;;;4991716;28;19929;-81
2022/03/21 07:35:30;;;;;;;;;;;5.30;69.50;;;;;;4975604;28;19918;-81
2022/03/21 07:37:57;;;;;;;;;;;5.40;70.50;;;;;;4991528;28;19972;-80
2022/03/21 07:40:24;;;;;;;;;;;5.50;69.20;;;;;;4990859;28;19917;-81
2022/03/21 07:42:49;;;;;;;;;;;5.70;69.00;;;;;;4990387;28;19918;-81
2022/03/21 07:48:00;;;;;;;;;;;5.50;66.70;;;;;;4976323;28;20001;-80
2022/03/21 07:50:26;;;;;;;;;;;5.80;67.60;;;;;;4992399;28;19968;-81
2022/03/21 07:52:53;;;;;;;;;;;6.00;66.10;;;;;;4991362;28;20692;-81
2022/03/21 07:55:19;;;;;;;;;;;6.10;65.10;;;;;;4989768;28;19921;-81
2022/03/21 07:57:45;;;;;;;;;;;6.10;68.30;;;;;;4992327;28;19961;-81
2022/03/21 08:00:11;;;;;;;;;;;6.30;66.20;;;;;;4991682;28;19979;-80
2022/03/21 08:02:39;;;;;;;;;;;6.50;68.80;;;;;;4979444;28;19918;-78
2022/03/21 08:05:05;;;;;;;;;;;6.60;62.90;;;;;;4974391;28;19918;-80
2022/03/21 08:07:31;;;;;;;;;;;6.60;64.10;;;;;;4991064;28;19918;-79
2022/03/21 08:09:57;;;;;;;;;;;6.70;62.90;;;;;;4971603;28;20369;-80
2022/03/21 08:12:23;;;;;;;;;;;6.70;61.50;;;;;;4991831;28;19918;-79
2022/03/21 08:14:51;;;;;;;;;;;6.80;61.40;;;;;;4991380;28;19918;-79
2022/03/21 08:17:18;;;;;;;;;;;6.60;63.50;;;;;;4988890;28;20467;-79
2022/03/21 08:19:44;;;;;;;;;;;6.60;61.70;;;;;;4991013;28;19968;-80
2022/03/21 08:22:09;;;;;;;;;;;6.60;61.80;;;;;;4992646;28;19971;-79
2022/03/21 08:24:35;;;;;;;;;;;6.60;60.20;;;;;;4992648;28;20402;-80
2022/03/21 08:27:01;;;;;;;;;;;6.70;62.90;;;;;;4989157;28;19929;-80
2022/03/21 08:29:27;;;;;;;;;;;6.60;59.90;;;;;;4988734;28;19924;-79
2022/03/21 08:31:52;;;;;;;;;;;6.40;59.90;;;;;;4984495;28;19914;-83
2022/03/21 08:34:18;;;;;;;;;;;6.40;61.00;;;;;;4978978;28;20064;-81
2022/03/21 08:36:45;;;;;;;;;;;6.40;60.70;;;;;;4984460;28;19917;-80
2022/03/21 08:39:11;;;;;;;;;;;6.40;59.90;;;;;;4985085;28;19922;-79
2022/03/21 08:41:37;;;;;;;;;;;6.50;59.60;;;;;;4984457;28;19964;-79
2022/03/21 08:44:02;;;;;;;;;;;6.50;62.80;;;;;;4985127;28;19914;-81
2022/03/21 08:46:28;;;;;;;;;;;6.60;62.20;;;;;;4983828;28;20581;-80
2022/03/21 08:51:38;;;;;;;;;;;6.60;59.90;;;;;;4980902;28;19957;-83
2022/03/21 08:54:04;;;;;;;;;;;6.60;60.30;;;;;;4980169;28;20055;-81
2022/03/21 08:56:30;;;;;;;;;;;6.50;62.70;;;;;;4983429;28;19914;-80
2022/03/21 08:58:56;;;;;;;;;;;6.50;61.50;;;;;;4983907;28;19920;-80
2022/03/21 09:01:23;;;;;;;;;;;6.60;63.50;;;;;;4982878;28;19937;-80
2022/03/21 09:03:49;;;;;;;;;;;6.60;61.10;;;;;;4984947;28;19987;-80
2022/03/21 09:06:15;;;;;;;;;;;6.60;63.10;;;;;;4985331;28;19913;-80
2022/03/21 09:08:42;;;;;;;;;;;6.80;62.20;;;;;;4985945;28;20394;-80
2022/03/21 09:11:08;;;;;;;;;;;6.70;60.20;;;;;;4969146;28;19989;-81
2022/03/21 09:13:37;;;;;;;;;;;6.80;61.30;;;;;;4979685;28;19914;-80
2022/03/21 09:16:03;;;;;;;;;;;6.90;61.40;;;;;;4987965;28;19917;-79
2022/03/21 09:18:29;;;;;;;;;;;7.00;60.60;;;;;;4985154;28;19922;-81
2022/03/21 09:20:56;;;;;;;;;;;7.00;59.80;;;;;;4990224;28;19925;-80
2022/03/21 09:23:22;;;;;;;;;;;6.90;59.00;;;;;;4988845;28;20502;-80
2022/03/21 09:25:48;;;;;;;;;;;7.00;61.40;;;;;;4991563;28;19914;-80
2022/03/21 09:28:13;;;;;;;;;;;7.10;62.00;;;;;;4992696;28;19925;-80
2022/03/21 09:30:39;;;;;;;;;;;7.30;61.30;;;;;;4991128;28;19914;-80
2022/03/21 09:33:05;;;;;;;;;;;7.40;60.70;;;;;;4981629;28;19926;-80
2022/03/21 09:35:30;;;;;;;;;;;7.50;60.50;;;;;;4992960;28;19944;-80
2022/03/21 09:37:56;;;;;;;;;;;7.50;59.60;;;;;;4980526;28;19918;-82
2022/03/21 09:40:22;;;;;;;;;;;7.70;59.90;;;;;;4982764;28;19922;-81
2022/03/21 09:42:48;;;;;;;;;;;7.80;58.70;;;;;;4985586;28;19918;-81
2022/03/21 09:45:13;;;;;;;;;;;7.80;60.80;;;;;;4974365;28;19965;-82
2022/03/21 09:50:28;;;;;;;;;;;8.00;58.90;;;;;;4989217;28;19988;-80
2022/03/21 09:52:53;;;;;;;;;;;8.10;58.30;;;;;;4988114;28;20636;-81
2022/03/21 09:55:19;;;;;;;;;;;8.20;59.70;;;;;;4989569;28;19924;-81
2022/03/21 09:57:44;;;;;;;;;;;8.30;58.80;;;;;;4987344;28;19924;-81
2022/03/21 10:00:11;;;;;;;;;;;8.40;57.30;;;;;;4984548;28;20369;-80
2022/03/21 10:02:41;;;;;;;;;;;8.40;56.70;;;;;;4986728;28;20297;-80
2022/03/21 10:05:07;;;;;;;;;;;8.50;57.80;;;;;;4969809;28;19922;-80
2022/03/21 10:07:33;;;;;;;;;;;8.60;55.10;;;;;;5028721;23;19929;-85
2022/03/21 10:10:09;;;;;;;;;;;8.60;54.90;;;;;;5046189;28;19921;-91
2022/03/21 10:12:36;;;;;;;;;;;8.50;56.00;;;;;;5017620;28;19928;-84
2022/03/21 10:15:09;;;;;;;;;;;8.50;56.50;;;;;;5033592;28;19913;-87
2022/03/21 10:17:35;;;;;;;;;;;8.60;56.30;;;;;;5018635;28;19917;-86
2022/03/21 10:20:01;;;;;;;;;;;8.70;56.60;;;;;;5019232;28;20351;-91
2022/03/21 10:22:32;;;;;;;;;;;8.80;57.00;;;;;;5016720;28;19953;-85
2022/03/21 10:25:06;;;;;;;;;;;8.90;55.30;;;;;;5044745;28;19917;-85
2022/03/21 10:27:33;;;;;;;;;;;9.00;56.10;;;;;;5050202;28;19989;-85
2022/03/21 10:30:00;;;;;;;;;;;9.10;57.20;;;;;;5030619;28;20047;-83
2022/03/21 10:32:29;;;;;;;;;;;9.20;57.00;;;;;;5033964;28;19924;-84
2022/03/21 10:35:03;;;;;;;;;;;9.20;55.50;;;;;;5033310;28;20007;-84
2022/03/21 10:37:44;;;;;;;;;;;9.20;58.20;;;;;;5044641;28;19913;-84
2022/03/21 10:40:16;;;;;;;;;;;9.30;54.40;;;;;;5034620;28;20408;-84
2022/03/21 10:43:03;;;;;;;;;;;9.40;54.80;;;;;;5051197;28;19917;-86
2022/03/21 10:45:49;;;;;;;;;;;9.40;54.00;;;;;;5031147;28;20011;-83
2022/03/21 10:48:18;;;;;;;;;;;9.50;55.60;;;;;;5040963;28;19913;-86
2022/03/21 10:50:46;;;;;;;;;;;9.60;56.20;;;;;;5053992;28;19917;-84
2022/03/21 10:53:18;;;;;;;;;;;9.80;56.10;;;;;;5030079;28;20012;-85
2022/03/21 10:55:48;;;;;;;;;;;9.90;52.00;;;;;;5060610;28;19913;-86
2022/03/21 10:58:15;;;;;;;;;;;9.90;51.40;;;;;;5035322;28;19919;-86
2022/03/21 11:00:41;;;;;;;;;;;9.90;52.30;;;;;;5029686;28;19961;-84
2022/03/21 11:03:17;;;;;;;;;;;10.00;52.10;;;;;;5027752;28;19917;-85
2022/03/21 11:05:43;;;;;;;;;;;10.00;53.30;;;;;;5035460;28;19967;-85
2022/03/21 11:08:10;;;;;;;;;;;10.00;53.00;;;;;;5027600;28;20371;-84
2022/03/21 11:10:36;;;;;;;;;;;10.00;53.30;;;;;;5047029;28;20498;-85
2022/03/21 11:13:03;;;;;;;;;;;10.00;52.60;;;;;;5050722;28;19913;-84
2022/03/21 11:15:29;;;;;;;;;;;10.00;53.80;;;;;;5043547;28;20369;-84
2022/03/21 11:17:55;;;;;;;;;;;10.00;53.00;;;;;;5048682;28;19916;-85
2022/03/21 11:20:21;;;;;;;;;;;10.10;51.20;;;;;;5013799;28;20585;-85
2022/03/21 11:22:47;;;;;;;;;;;10.10;51.60;;;;;;5029804;28;20399;-85
2022/03/21 11:25:14;;;;;;;;;;;10.10;52.30;;;;;;5027699;28;19967;-86
2022/03/21 11:27:39;;;;;;;;;;;10.10;53.80;;;;;;5033028;28;20686;-84
2022/03/21 11:30:18;;;;;;;;;;;10.20;52.70;;;;;;5047200;28;19913;-83
2022/03/21 11:33:02;;;;;;;;;;;10.30;53.80;;;;;;5045359;28;19920;-83
2022/03/21 11:35:29;;;;;;;;;;;10.40;53.10;;;;;;5046129;28;19913;-84
2022/03/21 11:38:15;;;;;;;;;;;10.40;51.70;;;;;;5029419;28;19920;-84
2022/03/21 11:40:40;;;;;;;;;;;10.50;51.30;;;;;;5046349;28;19917;-83
2022/03/21 11:43:18;;;;;;;;;;;10.50;51.60;;;;;;5030086;28;19925;-84
2022/03/21 11:45:45;;;;;;;;;;;10.50;51.40;;;;;;5029770;28;19920;-84
2022/03/21 11:48:16;;;;;;;;;;;10.50;50.00;;;;;;5030492;28;20351;-85
2022/03/21 11:50:42;;;;;;;;;;;10.60;50.80;;;;;;5030633;28;19913;-85
2022/03/21 11:53:08;;;;;;;;;;;10.70;52.00;;;;;;5012743;28;20401;-84
2022/03/21 11:55:38;;;;;;;;;;;10.90;51.20;;;;;;5012948;28;19917;-85
2022/03/21 11:58:22;;;;;;;;;;;11.00;49.90;;;;;;5029403;28;19924;-85
2022/03/21 12:01:07;;;;;;;;;;;11.10;50.10;;;;;;5030371;28;19916;-87
2022/03/21 12:03:33;;;;;;;;;;;11.30;48.60;;;;;;5024668;28;19917;-85
2022/03/21 12:06:18;;;;;;;;;;;11.40;48.60;;;;;;5017167;28;19924;-85
2022/03/21 12:08:45;;;;;;;;;;;11.50;45.40;;;;;;5046763;28;19923;-85
2022/03/21 12:11:31;;;;;;;;;;;11.50;47.20;;;;;;5048677;28;19913;-86
2022/03/21 12:14:15;;;;;;;;;;;11.60;49.10;;;;;;5010438;28;19913;-87
2022/03/21 12:16:41;;;;;;;;;;;11.70;45.40;;;;;;5046053;28;19913;-85
2022/03/21 12:19:07;;;;;;;;;;;11.70;45.20;;;;;;5014179;28;20397;-90
2022/03/21 12:21:32;;;;;;;;;;;11.70;45.20;;;;;;5027725;28;19923;-85
2022/03/21 12:24:10;;;;;;;;;;;11.70;47.40;;;;;;5013322;28;20023;-86
2022/03/21 12:26:36;;;;;;;;;;;11.60;47.90;;;;;;5045537;28;19970;-87
2022/03/21 12:29:31;;;;;;;;;;;11.70;47.80;;;;;;5026788;28;21435;-88
2022/03/21 12:32:16;;;;;;;;;;;11.80;46.90;;;;;;5040061;28;19917;-86
2022/03/21 12:34:42;;;;;;;;;;;11.80;46.50;;;;;;5023650;28;20553;-86
2022/03/21 12:37:40;;;;;;;;;;;11.80;48.70;;;;;;5026651;28;20015;-85
2022/03/21 12:40:08;;;;;;;;;;;11.80;46.20;;;;;;5021040;28;20074;-87
2022/03/21 12:42:35;;;;;;;;;;;11.80;46.90;;;;;;5043903;28;19983;-87
2022/03/21 12:45:01;;;;;;;;;;;11.80;45.60;;;;;;5026380;28;19935;-85
2022/03/21 12:47:27;;;;;;;;;;;11.70;46.00;;;;;;5043797;28;19921;-85
2022/03/21 12:49:53;;;;;;;;;;;11.60;46.70;;;;;;5041227;28;19920;-86
2022/03/21 12:52:29;;;;;;;;;;;11.60;46.90;;;;;;5021544;28;19917;-87
2022/03/21 12:54:57;;;;;;;;;;;11.70;48.10;;;;;;5027476;28;19986;-85
2022/03/21 12:57:23;;;;;;;;;;;11.70;46.80;;;;;;5043972;28;20274;-87
2022/03/21 12:59:48;;;;;;;;;;;11.70;47.80;;;;;;5039812;28;19962;-89
2022/03/21 13:02:24;;;;;;;;;;;11.70;46.20;;;;;;5026506;28;19917;-85
2022/03/21 13:10:32;;;;;;;;;;;11.80;45.20;;;;;;5051865;28;19920;-85
2022/03/21 13:12:59;;;;;;;;;;;11.90;45.80;;;;;;5035699;28;19956;-85
2022/03/21 13:15:24;;;;;;;;;;;12.10;47.10;;;;;;5034105;28;20003;-83
2022/03/21 13:17:51;;;;;;;;;;;12.20;45.00;;;;;;5031427;28;19971;-84
2022/03/21 13:20:26;;;;;;;;;;;12.30;45.50;;;;;;5033542;28;19913;-84
2022/03/21 13:22:52;;;;;;;;;;;12.40;46.20;;;;;;5034394;28;19970;-85
2022/03/21 13:25:26;;;;;;;;;;;12.50;44.50;;;;;;5051598;28;20722;-85
2022/03/21 13:27:52;;;;;;;;;;;12.50;45.10;;;;;;5017941;28;19971;-83
2022/03/21 13:30:18;;;;;;;;;;;12.60;44.90;;;;;;5033271;28;20330;-85
2022/03/21 13:32:44;;;;;;;;;;;12.60;45.90;;;;;;5023423;28;19913;-87
2022/03/21 13:35:12;;;;;;;;;;;12.50;45.00;;;;;;5022780;28;19967;-86
2022/03/21 13:37:38;;;;;;;;;;;12.60;44.40;;;;;;5018234;28;20016;-85
2022/03/21 13:40:05;;;;;;;;;;;12.50;45.70;;;;;;5030532;28;20361;-85
2022/03/21 13:42:31;;;;;;;;;;;12.60;45.30;;;;;;5043263;28;20004;-86
2022/03/21 13:45:02;;;;;;;;;;;12.70;44.80;;;;;;5033824;28;20019;-86
2022/03/21 13:47:28;;;;;;;;;;;12.70;45.40;;;;;;5030490;28;19917;-85
2022/03/21 13:50:02;;;;;;;;;;;12.80;45.30;;;;;;5031149;28;19913;-86
2022/03/21 13:53:04;;;;;;;;;;;12.80;45.10;;;;;;5030193;28;19917;-84
2022/03/21 13:55:30;;;;;;;;;;;12.70;44.40;;;;;;4987398;28;19920;-84
2022/03/21 13:57:57;;;;;;;;;;;12.60;45.60;;;;;;5013635;28;20354;-84
2022/03/21 14:00:35;;;;;;;;;;;12.50;47.50;;;;;;5036506;28;19962;-87
2022/03/21 14:03:01;;;;;;;;;;;12.50;47.00;;;;;;5032550;28;19962;-86
2022/03/21 14:05:27;;;;;;;;;;;12.50;45.70;;;;;;5052888;28;20418;-84
2022/03/21 14:08:09;;;;;;;;;;;12.50;44.60;;;;;;5048697;28;19960;-87
2022/03/21 14:10:41;;;;;;;;;;;12.50;44.80;;;;;;5053567;28;19920;-85
2022/03/21 14:13:14;;;;;;;;;;;12.60;47.20;;;;;;5053525;28;19917;-85
2022/03/21 14:15:40;;;;;;;;;;;12.60;47.40;;;;;;5035378;28;19916;-88
2022/03/21 14:18:06;;;;;;;;;;;12.50;44.70;;;;;;5034170;28;20374;-86
2022/03/21 14:20:32;;;;;;;;;;;12.50;45.70;;;;;;5016972;28;19917;-87
2022/03/21 14:22:58;;;;;;;;;;;12.50;45.90;;;;;;5021539;28;20394;-85
2022/03/21 14:28:07;;;;;;;;;;;12.40;44.70;;;;;;5038212;28;20004;-86
2022/03/21 14:30:35;;;;;;;;;;;12.30;45.10;;;;;;5035004;28;19956;-85
2022/03/21 14:33:01;;;;;;;;;;;12.30;44.50;;;;;;5034878;28;19918;-84
2022/03/21 14:35:26;;;;;;;;;;;12.30;44.90;;;;;;5035768;28;20306;-84
2022/03/21 14:37:52;;;;;;;;;;;12.30;45.40;;;;;;5017944;28;19955;-86
2022/03/21 14:40:18;;;;;;;;;;;12.30;48.20;;;;;;5035258;28;20024;-85
2022/03/21 14:42:43;;;;;;;;;;;12.30;49.50;;;;;;5033911;28;20272;-84
2022/03/21 14:45:10;;;;;;;;;;;12.20;46.50;;;;;;5036163;28;19913;-83
2022/03/21 14:47:36;;;;;;;;;;;12.20;46.10;;;;;;5032250;28;19913;-84
2022/03/21 14:50:03;;;;;;;;;;;12.20;47.20;;;;;;5029552;28;20602;-84
2022/03/21 14:52:29;;;;;;;;;;;12.20;46.50;;;;;;5033523;28;19919;-84
2022/03/21 14:54:54;;;;;;;;;;;12.20;46.70;;;;;;5016303;28;20295;-84
2022/03/21 14:57:20;;;;;;;;;;;12.10;46.50;;;;;;5031642;28;20114;-84
2022/03/21 14:59:46;;;;;;;;;;;12.10;46.80;;;;;;5018342;28;19923;-84